Time,TemperatureF,DewpointF,PressureIn,WindDirection,WindDirectionDegrees,WindSpeedMPH,WindSpeedGustMPH,Humidity,HourlyPrecipIn,Conditions,Clouds,dailyrainin,SoftwareType,DateUTC
2013-11-30 00:04:00,30.2,29.7,30.29,WSW,247,0.0,-999.0,98,-99.99,,,0.00,Acu-Link.com,2013-11-30 05:04:00,
2013-11-30 00:19:00,30.2,29.7,30.29,NNW,337,0.0,-999.0,98,-99.99,,,0.00,Acu-Link.com,2013-11-30 05:19:00,
2013-11-30 00:34:00,29.8,29.3,30.29,NW,315,0.0,-999.0,98,-99.99,,,0.00,Acu-Link.com,2013-11-30 05:34:00,
2013-11-30 00:49:00,29.5,29.0,30.29,NW,315,0.0,-999.0,98,-99.99,,,0.00,Acu-Link.com,2013-11-30 05:49:00,
2013-11-30 01:05:00,29.3,28.8,30.28,West,270,0.0,-999.0,98,-99.99,,,0.00,Acu-Link.com,2013-11-30 06:05:00,
2013-11-30 01:20:00,29.3,28.8,30.29,NW,315,0.0,-999.0,98,-99.99,,,0.00,Acu-Link.com,2013-11-30 06:20:00,
2013-11-30 01:35:00,29.1,28.6,30.30,West,270,2.2,-999.0,98,-99.99,,,0.00,Acu-Link.com,2013-11-30 06:35:00,
2013-11-30 01:50:00,28.9,28.4,30.30,SW,225,2.2,-999.0,98,-99.99,,,0.00,Acu-Link.com,2013-11-30 06:50:00,
2013-11-30 02:06:00,28.8,28.3,30.31,West,270,1.7,-999.0,98,-99.99,,,0.00,Acu-Link.com,2013-11-30 07:06:00,
2013-11-30 02:21:00,28.4,27.9,30.32,West,270,1.7,-999.0,98,-99.99,,,0.00,Acu-Link.com,2013-11-30 07:21:00,
2013-11-30 02:36:00,28.2,27.7,30.31,West,270,1.1,-999.0,98,-99.99,,,0.00,Acu-Link.com,2013-11-30 07:36:00,
2013-11-30 02:51:00,28.0,27.5,30.31,West,270,1.7,-999.0,98,-99.99,,,0.00,Acu-Link.com,2013-11-30 07:51:00,
2013-11-30 03:07:00,28.0,27.5,30.31,West,270,2.2,-999.0,98,-99.99,,,0.00,Acu-Link.com,2013-11-30 08:07:00,
2013-11-30 03:22:00,28.2,27.7,30.30,NW,315,2.7,-999.0,98,-99.99,,,0.00,Acu-Link.com,2013-11-30 08:22:00,
2013-11-30 03:37:00,28.0,27.5,30.31,WNW,292,1.7,-999.0,98,-99.99,,,0.00,Acu-Link.com,2013-11-30 08:37:00,
2013-11-30 03:52:00,27.9,27.4,30.31,NW,315,1.7,-999.0,98,-99.99,,,0.00,Acu-Link.com,2013-11-30 08:52:00,
2013-11-30 04:08:00,27.7,27.2,30.31,WNW,292,0.0,-999.0,98,-99.99,,,0.00,Acu-Link.com,2013-11-30 09:08:00,
2013-11-30 04:23:00,27.7,27.2,30.31,WNW,292,0.0,-999.0,98,-99.99,,,0.00,Acu-Link.com,2013-11-30 09:23:00,
2013-11-30 04:38:00,27.7,27.2,30.31,West,270,0.0,-999.0,98,-99.99,,,0.00,Acu-Link.com,2013-11-30 09:38:00,
2013-11-30 04:54:00,27.5,27.0,30.31,West,270,1.7,-999.0,98,-99.99,,,0.00,Acu-Link.com,2013-11-30 09:54:00,
2013-11-30 05:09:00,27.5,27.0,30.31,West,270,1.7,-999.0,98,-99.99,,,0.00,Acu-Link.com,2013-11-30 10:09:00,
2013-11-30 05:24:00,27.9,27.4,30.30,WNW,292,0.0,-999.0,98,-99.99,,,0.00,Acu-Link.com,2013-11-30 10:24:00,
2013-11-30 05:40:00,27.9,27.4,30.31,WNW,292,1.7,-999.0,98,-99.99,,,0.00,Acu-Link.com,2013-11-30 10:40:00,
2013-11-30 05:55:00,27.9,27.4,30.31,WNW,292,1.7,-999.0,98,-99.99,,,0.00,Acu-Link.com,2013-11-30 10:55:00,
2013-11-30 06:10:00,27.7,27.2,30.31,WNW,292,1.7,-999.0,98,-99.99,,,0.00,Acu-Link.com,2013-11-30 11:10:00,
2013-11-30 06:25:00,27.5,27.0,30.32,NW,315,0.0,-999.0,98,-99.99,,,0.00,Acu-Link.com,2013-11-30 11:25:00,
2013-11-30 06:40:00,28.0,27.5,30.32,West,270,0.0,-999.0,98,-99.99,,,0.00,Acu-Link.com,2013-11-30 11:40:00,
2013-11-30 06:56:00,28.6,28.1,30.32,West,270,0.0,-999.0,98,-99.99,,,0.00,Acu-Link.com,2013-11-30 11:56:00,
2013-11-30 07:11:00,28.4,27.9,30.32,NNW,337,2.2,-999.0,98,-99.99,,,0.00,Acu-Link.com,2013-11-30 12:11:00,
2013-11-30 07:26:00,28.4,27.9,30.32,West,270,0.0,-999.0,98,-99.99,,,0.00,Acu-Link.com,2013-11-30 12:26:00,
2013-11-30 07:41:00,28.4,27.9,30.33,WNW,292,1.7,-999.0,98,-99.99,,,0.00,Acu-Link.com,2013-11-30 12:41:00,
2013-11-30 07:57:00,28.4,27.9,30.34,NW,315,1.7,-999.0,98,-99.99,,,0.00,Acu-Link.com,2013-11-30 12:57:00,
2013-11-30 08:12:00,28.9,28.4,30.34,NNW,337,0.0,-999.0,98,-99.99,,,0.00,Acu-Link.com,2013-11-30 13:12:00,
2013-11-30 08:27:00,29.8,29.3,30.35,WNW,292,0.0,-999.0,98,-99.99,,,0.00,Acu-Link.com,2013-11-30 13:27:00,
2013-11-30 08:42:00,30.9,30.4,30.34,South,180,0.0,-999.0,98,-99.99,,,0.00,Acu-Link.com,2013-11-30 13:42:00,
2013-11-30 08:57:00,32.4,31.9,30.34,West,270,0.0,-999.0,98,-99.99,,,0.00,Acu-Link.com,2013-11-30 13:57:00,
2013-11-30 09:13:00,34.5,34.0,30.36,ESE,112,0.0,-999.0,98,-99.99,,,0.00,Acu-Link.com,2013-11-30 14:13:00,
2013-11-30 09:28:00,36.1,35.6,30.35,SSE,157,0.0,-999.0,98,-99.99,,,0.00,Acu-Link.com,2013-11-30 14:28:00,
2013-11-30 09:43:00,40.1,39.6,30.36,SSW,202,0.0,-999.0,98,-99.99,,,0.00,Acu-Link.com,2013-11-30 14:43:00,
2013-11-30 09:58:00,44.6,44.1,30.36,ESE,112,0.0,-999.0,98,-99.99,,,0.00,Acu-Link.com,2013-11-30 14:58:00,
2013-11-30 10:13:00,45.5,45.0,30.35,SE,135,2.2,-999.0,98,-99.99,,,0.00,Acu-Link.com,2013-11-30 15:13:00,
2013-11-30 10:29:00,46.8,43.4,30.35,SW,225,2.2,-999.0,88,-99.99,,,0.00,Acu-Link.com,2013-11-30 15:29:00,
2013-11-30 10:44:00,48.0,35.6,30.35,SSW,202,3.7,-999.0,62,-99.99,,,0.00,Acu-Link.com,2013-11-30 15:44:00,
2013-11-30 10:59:00,49.1,34.5,30.35,SSE,157,2.2,-999.0,57,-99.99,,,0.00,Acu-Link.com,2013-11-30 15:59:00,
2013-11-30 11:14:00,51.3,32.8,30.34,WNW,292,2.2,-999.0,49,-99.99,,,0.00,Acu-Link.com,2013-11-30 16:14:00,
2013-11-30 11:30:00,52.5,32.9,30.33,ESE,112,0.0,-999.0,47,-99.99,,,0.00,Acu-Link.com,2013-11-30 16:30:00,
2013-11-30 11:45:00,51.8,32.7,30.32,ESE,112,2.7,-999.0,48,-99.99,,,0.00,Acu-Link.com,2013-11-30 16:45:00,
2013-11-30 12:00:00,52.2,31.5,30.31,West,270,3.7,-999.0,45,-99.99,,,0.00,Acu-Link.com,2013-11-30 17:00:00,
2013-11-30 12:15:00,55.8,33.6,30.29,NNE,22,1.7,-999.0,43,-99.99,,,0.00,Acu-Link.com,2013-11-30 17:15:00,
2013-11-30 12:30:00,54.1,32.7,30.28,South,180,2.2,-999.0,44,-99.99,,,0.00,Acu-Link.com,2013-11-30 17:30:00,
2013-11-30 12:45:00,53.8,33.0,30.27,SE,135,2.2,-999.0,45,-99.99,,,0.00,Acu-Link.com,2013-11-30 17:45:00,
2013-11-30 13:01:00,54.0,33.1,30.26,SE,135,2.7,-999.0,45,-99.99,,,0.00,Acu-Link.com,2013-11-30 18:01:00,
2013-11-30 13:16:00,54.7,32.6,30.25,ESE,112,3.7,-999.0,43,-99.99,,,0.00,Acu-Link.com,2013-11-30 18:16:00,
2013-11-30 13:31:00,54.1,32.1,30.24,ESE,112,4.7,-999.0,43,-99.99,,,0.00,Acu-Link.com,2013-11-30 18:31:00,
2013-11-30 13:46:00,54.7,31.5,30.23,SSE,157,2.7,-999.0,41,-99.99,,,0.00,Acu-Link.com,2013-11-30 18:46:00,
2013-11-30 14:01:00,56.7,30.7,30.22,South,180,3.2,-999.0,37,-99.99,,,0.00,Acu-Link.com,2013-11-30 19:01:00,
2013-11-30 14:16:00,55.9,30.7,30.22,South,180,2.7,-999.0,38,-99.99,,,0.00,Acu-Link.com,2013-11-30 19:16:00,
2013-11-30 14:31:00,56.3,31.0,30.21,ESE,112,2.7,-999.0,38,-99.99,,,0.00,Acu-Link.com,2013-11-30 19:31:00,
2013-11-30 14:47:00,56.3,31.7,30.20,SSW,202,3.2,-999.0,39,-99.99,,,0.00,Acu-Link.com,2013-11-30 19:47:00,
2013-11-30 15:02:00,57.6,30.8,30.19,East,90,2.2,-999.0,36,-99.99,,,0.00,Acu-Link.com,2013-11-30 20:02:00,
2013-11-30 15:17:00,58.5,31.6,30.18,WNW,292,2.7,-999.0,36,-99.99,,,0.00,Acu-Link.com,2013-11-30 20:17:00,
2013-11-30 15:32:00,58.5,31.6,30.17,ESE,112,3.7,-999.0,36,-99.99,,,0.00,Acu-Link.com,2013-11-30 20:32:00,
2013-11-30 15:47:00,59.0,30.7,30.17,SSW,202,1.7,-999.0,34,-99.99,,,0.00,Acu-Link.com,2013-11-30 20:47:00,
2013-11-30 16:02:00,58.8,30.5,30.17,SE,135,1.7,-999.0,34,-99.99,,,0.00,Acu-Link.com,2013-11-30 21:02:00,
2013-11-30 16:17:00,57.7,30.2,30.16,SSW,202,2.7,-999.0,35,-99.99,,,0.00,Acu-Link.com,2013-11-30 21:17:00,
2013-11-30 16:32:00,55.4,30.9,30.16,WSW,247,0.0,-999.0,39,-99.99,,,0.00,Acu-Link.com,2013-11-30 21:32:00,
2013-11-30 16:48:00,53.6,30.5,30.16,West,270,0.0,-999.0,41,-99.99,,,0.00,Acu-Link.com,2013-11-30 21:48:00,
2013-11-30 17:03:00,51.3,31.2,30.16,SSE,157,0.0,-999.0,46,-99.99,,,0.00,Acu-Link.com,2013-11-30 22:03:00,
2013-11-30 17:18:00,49.5,31.6,30.16,SW,225,0.0,-999.0,50,-99.99,,,0.00,Acu-Link.com,2013-11-30 22:18:00,
2013-11-30 17:33:00,48.0,31.2,30.16,West,270,0.0,-999.0,52,-99.99,,,0.00,Acu-Link.com,2013-11-30 22:33:00,
2013-11-30 17:48:00,46.4,30.7,30.16,South,180,0.0,-999.0,54,-99.99,,,0.00,Acu-Link.com,2013-11-30 22:48:00,
2013-11-30 18:03:00,45.7,30.5,30.15,SW,225,0.0,-999.0,55,-99.99,,,0.00,Acu-Link.com,2013-11-30 23:03:00,
2013-11-30 18:18:00,44.8,30.9,30.15,South,180,0.0,-999.0,58,-99.99,,,0.00,Acu-Link.com,2013-11-30 23:18:00,
2013-11-30 18:34:00,43.5,31.4,30.16,West,270,0.0,-999.0,62,-99.99,,,0.00,Acu-Link.com,2013-11-30 23:34:00,
2013-11-30 18:49:00,43.5,32.5,30.15,West,270,0.0,-999.0,65,-99.99,,,0.00,Acu-Link.com,2013-11-30 23:49:00,
2013-11-30 19:04:00,43.2,33.0,30.16,WSW,247,0.0,-999.0,67,-99.99,,,0.00,Acu-Link.com,2013-12-01 00:04:00,
2013-11-30 19:19:00,42.8,33.0,30.16,West,270,0.0,-999.0,68,-99.99,,,0.00,Acu-Link.com,2013-12-01 00:19:00,
2013-11-30 19:34:00,42.1,31.2,30.16,WSW,247,0.0,-999.0,65,-99.99,,,0.00,Acu-Link.com,2013-12-01 00:34:00,
2013-11-30 19:49:00,41.9,30.6,30.16,West,270,0.0,-999.0,64,-99.99,,,0.00,Acu-Link.com,2013-12-01 00:49:00,
2013-11-30 20:04:00,41.5,29.9,30.16,West,270,0.0,-999.0,63,-99.99,,,0.00,Acu-Link.com,2013-12-01 01:04:00,
2013-11-30 20:19:00,41.7,30.4,30.16,ESE,112,0.0,-999.0,64,-99.99,,,0.00,Acu-Link.com,2013-12-01 01:19:00,
2013-11-30 20:34:00,41.5,29.9,30.16,WNW,292,1.7,-999.0,63,-99.99,,,0.00,Acu-Link.com,2013-12-01 01:34:00,
2013-11-30 20:49:00,41.2,29.6,30.16,WNW,292,0.0,-999.0,63,-99.99,,,0.00,Acu-Link.com,2013-12-01 01:49:00,
2013-11-30 21:05:00,40.6,29.8,30.16,NW,315,0.0,-999.0,65,-99.99,,,0.00,Acu-Link.com,2013-12-01 02:05:00,
2013-11-30 21:20:00,40.5,30.0,30.16,WNW,292,0.0,-999.0,66,-99.99,,,0.00,Acu-Link.com,2013-12-01 02:20:00,
2013-11-30 21:35:00,40.3,29.9,30.15,NW,315,0.0,-999.0,66,-99.99,,,0.00,Acu-Link.com,2013-12-01 02:35:00,
2013-11-30 21:50:00,40.5,30.0,30.15,West,270,0.0,-999.0,66,-99.99,,,0.00,Acu-Link.com,2013-12-01 02:50:00,
2013-11-30 22:05:00,40.3,30.2,30.15,WNW,292,0.0,-999.0,67,-99.99,,,0.00,Acu-Link.com,2013-12-01 03:05:00,
2013-11-30 22:20:00,40.1,30.0,30.15,NW,315,0.0,-999.0,67,-99.99,,,0.00,Acu-Link.com,2013-12-01 03:20:00,
2013-11-30 22:35:00,39.9,30.6,30.15,WNW,292,0.0,-999.0,69,-99.99,,,0.00,Acu-Link.com,2013-12-01 03:35:00,
2013-11-30 22:50:00,39.7,30.7,30.15,NW,315,0.0,-999.0,70,-99.99,,,0.00,Acu-Link.com,2013-12-01 03:50:00,
2013-11-30 23:06:00,39.2,30.9,30.15,NNW,337,0.0,-999.0,72,-99.99,,,0.00,Acu-Link.com,2013-12-01 04:06:00,
2013-11-30 23:21:00,39.2,30.9,30.14,WNW,292,1.7,-999.0,72,-99.99,,,0.00,Acu-Link.com,2013-12-01 04:21:00,
2013-11-30 23:36:00,39.2,32.0,30.14,West,270,1.7,-999.0,75,-99.99,,,0.00,Acu-Link.com,2013-12-01 04:36:00,
2013-11-30 23:52:00,38.8,31.9,30.15,NW,315,1.1,-999.0,76,-99.99,,,0.00,Acu-Link.com,2013-12-01 04:52:00,